Time;durP1;ratioP1;P1;durP2;ratioP2;P2;SDS_P1;SDS_P2;PMS_P1;PMS_P2;Temp;Humidity;BMP_temperature;BMP_pressure;BME280_temperature;BME280_humidity;BME280_pressure;Samples;Min_cycle;Max_cycle;Signal;HPM_P1;HPM_P2
2023/04/07 00:00:27;;;;;;;10.87;8.27;;;5.60;98.00;;;;;;5033437;28;20624;-83
2023/04/07 00:02:53;;;;;;;14.80;8.90;;;5.60;98.10;;;;;;5031985;28;20182;-84
2023/04/07 00:05:19;;;;;;;14.37;8.90;;;5.60;98.10;;;;;;5032381;28;20243;-83
2023/04/07 00:07:45;;;;;;;13.40;7.83;;;5.60;98.20;;;;;;5033509;28;20174;-82
2023/04/07 00:10:10;;;;;;;12.17;8.80;;;5.60;98.10;;;;;;5033443;28;20174;-85
2023/04/07 00:12:36;;;;;;;12.70;8.03;;;5.60;98.00;;;;;;5033393;28;20236;-83
2023/04/07 00:15:02;;;;;;;15.47;8.30;;;5.60;97.80;;;;;;5033443;28;20228;-81
2023/04/07 00:17:28;;;;;;;12.17;8.53;;;5.50;98.00;;;;;;5033429;28;20160;-83
2023/04/07 00:19:53;;;;;;;14.73;8.23;;;5.50;98.10;;;;;;5033506;28;20170;-84
2023/04/07 00:22:19;;;;;;;12.77;8.07;;;5.50;97.90;;;;;;5033397;28;20232;-82
2023/04/07 00:24:44;;;;;;;11.43;7.93;;;5.50;98.00;;;;;;5033384;28;20516;-83
2023/04/07 00:27:10;;;;;;;11.13;7.80;;;5.50;97.90;;;;;;5032163;28;20178;-83
2023/04/07 00:29:36;;;;;;;11.07;7.93;;;5.50;97.70;;;;;;5033222;28;20340;-83
2023/04/07 00:32:01;;;;;;;13.33;8.33;;;5.50;97.90;;;;;;5031963;28;20217;-83
2023/04/07 00:34:27;;;;;;;13.60;7.93;;;5.50;97.60;;;;;;5032050;28;20305;-83
2023/04/07 00:36:53;;;;;;;12.57;8.10;;;5.50;97.70;;;;;;5033322;28;20174;-83
2023/04/07 00:39:20;;;;;;;10.57;7.87;;;5.40;97.70;;;;;;5033408;28;20185;-83
2023/04/07 00:41:46;;;;;;;11.80;8.33;;;5.50;97.60;;;;;;5035237;28;20641;-83
2023/04/07 00:44:13;;;;;;;12.00;8.07;;;5.50;97.60;;;;;;5036981;28;20309;-84
2023/04/07 00:46:39;;;;;;;11.37;7.90;;;5.40;97.40;;;;;;5037011;28;20632;-83
2023/04/07 00:49:06;;;;;;;12.30;7.77;;;5.40;97.50;;;;;;5036936;28;20206;-83
2023/04/07 00:51:32;;;;;;;11.70;8.87;;;5.40;97.70;;;;;;5036918;28;20171;-83
2023/04/07 00:53:59;;;;;;;13.20;8.27;;;5.30;97.60;;;;;;5036855;28;20599;-84
2023/04/07 00:56:24;;;;;;;12.50;8.37;;;5.30;97.40;;;;;;5036810;28;20178;-83
2023/04/07 00:58:50;;;;;;;14.33;8.47;;;5.30;97.80;;;;;;5036826;28;20231;-84
2023/04/07 01:01:29;;;;;;;11.50;8.13;;;5.30;97.60;;;;;;5036854;28;20202;-83
2023/04/07 01:04:07;;;;;;;12.63;8.20;;;5.20;97.60;;;;;;5035400;28;20283;-84
2023/04/07 01:06:37;;;;;;;10.93;7.33;;;5.20;97.60;;;;;;5036638;28;20158;-83
2023/04/07 01:09:29;;;;;;;11.37;7.83;;;5.20;97.60;;;;;;5036213;28;20213;-83
2023/04/07 01:12:19;;;;;;;13.13;8.23;;;5.20;97.50;;;;;;5036514;28;20258;-83
2023/04/07 01:14:51;;;;;;;12.53;7.40;;;5.20;97.40;;;;;;5036554;28;20171;-83
2023/04/07 01:17:20;;;;;;;11.43;7.60;;;5.20;97.00;;;;;;5036535;28;20167;-83
2023/04/07 01:19:58;;;;;;;13.93;8.37;;;5.20;97.20;;;;;;5036359;28;20250;-83
2023/04/07 01:22:30;;;;;;;11.77;7.30;;;5.20;97.10;;;;;;5036522;28;20163;-82
2023/04/07 01:25:16;;;;;;;12.30;7.87;;;5.20;96.90;;;;;;5036669;28;20173;-82
2023/04/07 01:28:09;;;;;;;16.13;8.10;;;5.20;97.00;;;;;;5018529;28;20564;-83
2023/04/07 01:30:39;;;;;;;12.23;7.50;;;5.20;97.30;;;;;;5036247;28;20175;-83
2023/04/07 01:33:08;;;;;;;11.73;7.70;;;5.10;97.40;;;;;;5036447;28;20179;-83
2023/04/07 01:35:36;;;;;;;11.13;7.63;;;5.10;97.50;;;;;;5036028;28;20183;-82
2023/04/07 01:38:02;;;;;;;12.17;7.67;;;5.00;97.70;;;;;;5034748;28;20178;-83
2023/04/07 01:40:29;;;;;;;10.53;7.27;;;4.90;97.80;;;;;;5051315;28;20210;-82
2023/04/07 01:42:56;;;;;;;11.63;7.97;;;4.90;98.30;;;;;;5051190;28;20186;-83
2023/04/07 01:45:23;;;;;;;11.70;8.07;;;4.80;98.50;;;;;;5035884;28;20581;-83
2023/04/07 01:47:50;;;;;;;14.33;8.00;;;4.70;98.70;;;;;;5035968;28;20213;-83
2023/04/07 01:50:16;;;;;;;11.93;7.77;;;4.70;99.10;;;;;;5035893;28;20175;-82
2023/04/07 01:52:42;;;;;;;11.23;8.10;;;4.60;99.50;;;;;;5035615;28;20171;-83
2023/04/07 01:55:09;;;;;;;12.00;7.57;;;4.50;99.20;;;;;;5035677;28;20187;-83
2023/04/07 01:57:34;;;;;;;11.03;7.73;;;4.50;99.30;;;;;;5034478;28;20171;-83
2023/04/07 02:00:01;;;;;;;12.30;7.83;;;4.50;99.60;;;;;;5035689;28;20615;-83
2023/04/07 02:02:27;;;;;;;12.77;8.00;;;4.50;99.40;;;;;;5034352;28;20174;-83
2023/04/07 02:05:04;;;;;;;9.93;7.97;;;4.50;99.50;;;;;;5035437;28;20258;-83
2023/04/07 02:07:40;;;;;;;12.13;7.63;;;4.50;99.50;;;;;;5035531;28;20605;-83
2023/04/07 02:10:09;;;;;;;13.93;8.03;;;4.40;99.50;;;;;;5035464;28;20632;-83
2023/04/07 02:12:38;;;;;;;12.03;7.37;;;4.40;99.60;;;;;;5035475;28;20174;-83
2023/04/07 02:15:08;;;;;;;11.43;7.90;;;4.30;99.50;;;;;;5035436;28;20174;-83
2023/04/07 02:17:37;;;;;;;9.57;7.40;;;4.30;99.80;;;;;;5034191;28;20613;-82
2023/04/07 02:20:04;;;;;;;11.17;7.33;;;4.30;99.80;;;;;;5034156;28;20209;-83
2023/04/07 02:22:31;;;;;;;10.40;7.97;;;4.30;99.70;;;;;;5035171;28;20174;-83
2023/04/07 02:24:57;;;;;;;14.23;8.10;;;4.20;99.90;;;;;;5035021;28;20763;-83
2023/04/07 02:27:23;;;;;;;13.13;8.53;;;4.20;99.90;;;;;;5035294;28;20211;-83
2023/04/07 02:29:49;;;;;;;9.63;7.90;;;4.10;99.90;;;;;;5034775;28;20256;-83
2023/04/07 02:32:16;;;;;;;12.90;8.40;;;4.10;99.90;;;;;;5034986;28;20180;-83
2023/04/07 02:34:42;;;;;;;10.20;7.87;;;3.90;99.90;;;;;;5035459;28;20183;-83
2023/04/07 02:37:08;;;;;;;11.60;8.50;;;3.90;99.90;;;;;;5033695;28;20528;-82
2023/04/07 02:39:33;;;;;;;11.50;8.53;;;3.70;99.90;;;;;;5033669;28;20174;-82
2023/04/07 02:41:59;;;;;;;11.23;8.00;;;3.60;99.90;;;;;;5034817;28;20563;-82
2023/04/07 02:44:25;;;;;;;12.10;8.20;;;3.50;99.90;;;;;;5034833;28;20175;-83
2023/04/07 02:46:50;;;;;;;12.50;8.47;;;3.50;99.90;;;;;;5034914;28;20167;-83
2023/04/07 02:49:16;;;;;;;10.93;8.33;;;3.50;99.90;;;;;;5033346;28;20685;-83
2023/04/07 02:51:42;;;;;;;13.37;9.00;;;3.60;99.90;;;;;;5033262;28;20201;-83
2023/04/07 02:54:07;;;;;;;13.87;8.50;;;3.70;99.90;;;;;;5034761;28;20579;-83
2023/04/07 02:56:33;;;;;;;18.07;9.20;;;3.70;99.90;;;;;;5034674;28;20174;-84
2023/04/07 02:58:59;;;;;;;13.20;9.37;;;3.60;99.90;;;;;;5034454;28;20593;-83
2023/04/07 03:01:25;;;;;;;13.93;9.23;;;3.60;99.90;;;;;;5034409;28;20166;-83
2023/04/07 03:03:50;;;;;;;11.67;8.27;;;3.50;99.90;;;;;;5033727;28;20240;-83
2023/04/07 03:06:16;;;;;;;10.90;7.97;;;3.50;99.90;;;;;;5034400;28;20189;-83
2023/04/07 03:08:42;;;;;;;14.27;8.73;;;3.40;99.90;;;;;;5033191;28;20208;-83
2023/04/07 03:11:07;;;;;;;13.67;8.83;;;3.30;99.90;;;;;;5034390;28;20213;-83
2023/04/07 03:13:33;;;;;;;15.60;9.97;;;3.20;99.90;;;;;;5034184;28;20182;-83
2023/04/07 03:15:59;;;;;;;15.90;9.53;;;3.20;99.90;;;;;;5034262;28;20175;-83
2023/04/07 03:18:24;;;;;;;12.63;8.80;;;3.20;99.90;;;;;;5034184;28;20276;-83
2023/04/07 03:20:51;;;;;;;12.87;9.40;;;3.20;99.90;;;;;;5034039;28;20190;-83
2023/04/07 03:23:17;;;;;;;12.33;8.97;;;3.20;99.90;;;;;;5033836;28;20190;-83
2023/04/07 03:25:43;;;;;;;14.03;9.83;;;3.20;99.90;;;;;;5034076;28;20201;-83
2023/04/07 03:28:09;;;;;;;11.93;8.70;;;3.20;99.90;;;;;;5033876;28;20214;-84
2023/04/07 03:30:35;;;;;;;12.27;8.70;;;3.30;99.90;;;;;;5034027;28;20166;-83
2023/04/07 03:33:01;;;;;;;23.03;9.20;;;3.20;99.90;;;;;;5033796;28;20170;-83
2023/04/07 03:35:27;;;;;;;13.77;9.20;;;3.30;99.90;;;;;;5033915;28;20182;-83
2023/04/07 03:37:52;;;;;;;12.47;9.70;;;3.20;99.90;;;;;;5034003;28;20185;-82
2023/04/07 03:40:18;;;;;;;13.27;8.97;;;3.20;99.90;;;;;;5032581;28;20175;-83
2023/04/07 03:42:45;;;;;;;14.13;9.53;;;3.10;99.90;;;;;;5033682;28;20187;-82
2023/04/07 03:45:11;;;;;;;13.80;8.87;;;3.10;99.90;;;;;;5033784;28;20183;-83
2023/04/07 03:47:36;;;;;;;13.83;9.33;;;3.10;99.90;;;;;;5033714;28;20184;-82
2023/04/07 03:50:02;;;;;;;12.73;8.47;;;3.10;99.90;;;;;;5033638;28;20210;-83
2023/04/07 03:52:28;;;;;;;12.20;8.93;;;3.00;99.90;;;;;;5033640;28;20178;-84
2023/04/07 03:54:54;;;;;;;13.47;8.70;;;3.00;99.90;;;;;;5033782;28;20229;-82
2023/04/07 03:57:19;;;;;;;12.73;9.10;;;3.00;99.90;;;;;;5033676;28;20262;-83
2023/04/07 03:59:46;;;;;;;12.47;9.27;;;3.00;99.90;;;;;;5033603;28;20199;-84
2023/04/07 04:02:12;;;;;;;13.57;9.20;;;3.00;99.90;;;;;;5033733;28;20616;-83
2023/04/07 04:04:38;;;;;;;14.20;9.10;;;3.00;99.90;;;;;;5032167;28;20234;-83
2023/04/07 04:07:04;;;;;;;12.23;8.50;;;3.00;99.90;;;;;;5033597;28;20515;-83
2023/04/07 04:09:29;;;;;;;15.13;8.47;;;2.90;99.90;;;;;;5032220;28;20550;-83
2023/04/07 04:11:55;;;;;;;12.73;9.27;;;2.90;99.90;;;;;;5032016;28;20190;-83
2023/04/07 04:14:21;;;;;;;12.53;8.90;;;2.80;99.90;;;;;;5033506;28;20513;-83
2023/04/07 04:16:47;;;;;;;14.47;9.50;;;2.70;99.90;;;;;;5035751;28;20245;-82
2023/04/07 04:19:12;;;;;;;17.30;9.50;;;2.70;99.90;;;;;;5037458;28;20499;-82
2023/04/07 04:21:38;;;;;;;13.53;9.13;;;2.80;99.90;;;;;;5037530;28;20224;-85
2023/04/07 04:24:04;;;;;;;11.13;8.73;;;2.70;99.90;;;;;;5037234;28;20179;-84
2023/04/07 04:26:30;;;;;;;19.77;9.10;;;2.70;99.90;;;;;;5037384;28;20175;-84
2023/04/07 04:28:55;;;;;;;14.33;8.43;;;2.70;99.90;;;;;;5037232;28;20301;-83
2023/04/07 04:31:21;;;;;;;13.27;9.77;;;2.70;99.90;;;;;;5037190;28;20171;-83
2023/04/07 04:33:47;;;;;;;14.90;9.27;;;2.60;99.90;;;;;;5036131;28;20195;-84
2023/04/07 04:36:12;;;;;;;12.80;8.67;;;2.60;99.90;;;;;;5036044;28;20244;-83
2023/04/07 04:38:38;;;;;;;11.90;8.77;;;2.60;99.90;;;;;;5037373;28;20677;-84
2023/04/07 04:41:04;;;;;;;15.10;9.30;;;2.60;99.90;;;;;;5037048;28;20158;-82
2023/04/07 04:43:30;;;;;;;18.87;9.30;;;2.60;99.90;;;;;;5037074;28;20201;-83
2023/04/07 04:45:56;;;;;;;11.80;8.83;;;2.50;99.90;;;;;;5037001;28;20175;-84
2023/04/07 04:48:22;;;;;;;11.43;8.53;;;2.60;99.90;;;;;;5036946;28;20663;-84
2023/04/07 04:50:47;;;;;;;13.10;9.10;;;2.60;99.90;;;;;;5036917;28;20179;-83
2023/04/07 04:53:13;;;;;;;14.10;8.40;;;2.60;99.90;;;;;;5036675;28;20257;-84
2023/04/07 04:55:39;;;;;;;11.50;8.33;;;2.50;99.90;;;;;;5036735;28;20225;-83
2023/04/07 04:58:05;;;;;;;12.20;8.70;;;2.40;99.90;;;;;;5035565;28;20179;-84
2023/04/07 05:00:31;;;;;;;15.23;9.47;;;2.40;99.90;;;;;;5036568;28;20185;-83
2023/04/07 05:02:56;;;;;;;11.73;8.90;;;2.40;99.90;;;;;;5036457;28;20248;-84
2023/04/07 05:05:22;;;;;;;11.03;8.80;;;2.40;99.90;;;;;;5036669;28;20690;-83
2023/04/07 05:07:48;;;;;;;13.50;8.77;;;2.40;99.90;;;;;;5036564;28;20181;-82
2023/04/07 05:10:13;;;;;;;12.23;8.93;;;2.40;99.90;;;;;;5035129;28;20222;-81
2023/04/07 05:12:39;;;;;;;13.27;9.17;;;2.40;99.90;;;;;;5036668;28;20189;-82
2023/04/07 05:15:05;;;;;;;11.33;8.07;;;2.40;99.90;;;;;;5036515;28;20214;-83
2023/04/07 05:17:31;;;;;;;11.97;8.93;;;2.40;99.90;;;;;;5036443;28;20541;-83
2023/04/07 05:19:57;;;;;;;12.43;8.47;;;2.40;99.90;;;;;;5036477;28;20234;-84
2023/04/07 05:22:22;;;;;;;12.90;8.70;;;2.50;99.90;;;;;;5035281;28;20640;-83
2023/04/07 05:24:48;;;;;;;13.30;8.63;;;2.60;99.90;;;;;;5035794;28;20181;-83
2023/04/07 05:27:14;;;;;;;13.33;9.20;;;2.60;99.90;;;;;;5035722;28;20179;-84
2023/04/07 05:29:40;;;;;;;13.87;9.13;;;2.70;99.90;;;;;;5035992;28;20318;-83
2023/04/07 05:32:05;;;;;;;11.63;8.47;;;2.70;99.90;;;;;;5034989;28;20171;-84
2023/04/07 05:34:31;;;;;;;12.53;8.43;;;2.80;99.90;;;;;;5036277;28;20186;-84
2023/04/07 05:36:57;;;;;;;10.47;7.57;;;2.90;99.90;;;;;;5036422;28;20182;-83
2023/04/07 05:39:23;;;;;;;10.87;7.20;;;3.00;99.90;;;;;;5035235;28;20640;-83
2023/04/07 05:41:48;;;;;;;12.20;7.80;;;3.10;99.90;;;;;;5034714;28;20515;-83
2023/04/07 05:44:14;;;;;;;9.17;7.67;;;3.10;99.90;;;;;;5035910;28;20185;-84
2023/04/07 05:46:40;;;;;;;14.03;8.73;;;3.20;99.90;;;;;;5034770;28;20257;-83
2023/04/07 05:49:06;;;;;;;9.80;7.60;;;3.30;99.90;;;;;;5035830;28;20214;-83
2023/04/07 05:51:32;;;;;;;12.30;7.53;;;3.30;99.90;;;;;;5034867;28;20509;-83
2023/04/07 05:54:02;;;;;;;10.97;7.60;;;3.30;99.90;;;;;;5035774;28;20213;-83
2023/04/07 05:56:28;;;;;;;9.37;7.00;;;3.40;99.90;;;;;;5051053;28;20171;-83
2023/04/07 05:58:54;;;;;;;11.87;7.30;;;3.40;99.90;;;;;;5035600;28;20232;-83
2023/04/07 06:01:20;;;;;;;10.67;7.50;;;3.50;99.90;;;;;;5034291;28;20171;-82
2023/04/07 06:03:45;;;;;;;12.70;7.43;;;3.60;99.90;;;;;;5034114;28;20329;-84
2023/04/07 06:06:11;;;;;;;11.63;6.97;;;3.60;99.90;;;;;;5034606;28;20551;-84
2023/04/07 06:08:37;;;;;;;9.27;7.20;;;3.60;99.90;;;;;;5035449;28;20257;-84
2023/04/07 06:11:02;;;;;;;10.27;7.50;;;3.80;99.90;;;;;;5035498;28;20174;-83
2023/04/07 06:13:28;;;;;;;10.03;7.13;;;3.90;99.90;;;;;;5035256;28;20185;-84
2023/04/07 06:15:55;;;;;;;10.73;7.00;;;4.00;99.90;;;;;;5034073;28;20189;-83
2023/04/07 06:18:21;;;;;;;11.50;6.93;;;4.10;99.90;;;;;;5034064;28;20187;-83
2023/04/07 06:20:47;;;;;;;11.03;7.30;;;4.20;99.90;;;;;;5035241;28;20182;-83
2023/04/07 06:23:12;;;;;;;12.57;7.27;;;4.30;99.90;;;;;;5034961;28;20191;-81
2023/04/07 06:25:38;;;;;;;10.57;7.00;;;4.50;99.90;;;;;;5033753;28;20183;-82
2023/04/07 06:28:05;;;;;;;9.83;7.07;;;4.50;99.90;;;;;;5035007;28;20269;-82
2023/04/07 06:30:30;;;;;;;12.13;7.63;;;4.60;99.90;;;;;;5035321;28;20273;-85
2023/04/07 06:32:56;;;;;;;10.80;7.27;;;4.70;99.90;;;;;;5035125;28;20201;-82
2023/04/07 06:35:22;;;;;;;10.50;6.87;;;4.90;99.90;;;;;;5035027;28;20270;-83
2023/04/07 06:37:47;;;;;;;10.87;6.57;;;5.00;99.90;;;;;;5034670;28;20178;-82
2023/04/07 06:40:13;;;;;;;9.77;6.50;;;5.10;99.90;;;;;;5034262;28;20175;-84
2023/04/07 06:42:39;;;;;;;10.23;7.20;;;5.20;99.90;;;;;;5034711;28;20163;-83
2023/04/07 06:45:05;;;;;;;12.07;6.70;;;5.30;99.90;;;;;;5034834;28;20202;-82
2023/04/07 06:47:31;;;;;;;10.30;6.80;;;5.40;99.90;;;;;;5034986;28;20214;-83
2023/04/07 06:49:56;;;;;;;9.20;7.13;;;5.50;99.90;;;;;;5033281;28;20268;-82
2023/04/07 06:52:22;;;;;;;9.67;6.93;;;5.50;99.70;;;;;;5034577;28;20728;-83
2023/04/07 06:54:48;;;;;;;9.67;6.63;;;5.50;99.50;;;;;;5034618;28;20265;-82
2023/04/07 06:57:13;;;;;;;10.07;7.03;;;5.50;99.40;;;;;;5034454;28;20178;-83
2023/04/07 06:59:39;;;;;;;10.67;7.00;;;5.60;99.50;;;;;;5034487;28;20185;-82
2023/04/07 07:02:06;;;;;;;9.80;6.70;;;5.70;99.80;;;;;;5034498;28;20159;-83
2023/04/07 07:04:33;;;;;;;12.57;6.57;;;5.80;99.90;;;;;;5034330;28;20214;-83
2023/04/07 07:06:58;;;;;;;9.77;6.80;;;6.00;99.60;;;;;;5049626;28;20193;-83
2023/04/07 07:09:25;;;;;;;8.83;6.50;;;6.10;99.30;;;;;;5034615;28;20214;-83
2023/04/07 07:11:51;;;;;;;9.00;6.43;;;6.20;98.70;;;;;;5034326;28;20157;-83
2023/04/07 07:14:16;;;;;;;9.93;6.40;;;6.20;99.50;;;;;;5034340;28;20224;-84
2023/04/07 07:16:42;;;;;;;11.80;6.10;;;6.40;98.50;;;;;;5034353;28;20175;-84
2023/04/07 07:19:08;;;;;;;9.20;6.20;;;6.60;97.30;;;;;;5034171;28;20182;-82
2023/04/07 07:21:34;;;;;;;9.47;5.67;;;6.70;97.60;;;;;;5034123;28;20204;-82
2023/04/07 07:24:00;;;;;;;7.90;5.67;;;6.80;96.80;;;;;;5034272;28;20177;-84
2023/04/07 07:26:26;;;;;;;8.50;5.60;;;6.90;96.60;;;;;;5034093;28;20175;-84
2023/04/07 07:28:51;;;;;;;7.87;5.80;;;7.00;96.20;;;;;;5034223;28;20533;-84
2023/04/07 07:31:17;;;;;;;9.37;6.30;;;7.10;95.90;;;;;;5032722;28;20273;-83
2023/04/07 07:33:44;;;;;;;10.00;5.97;;;7.20;95.80;;;;;;5033999;28;20198;-82
2023/04/07 07:36:10;;;;;;;10.30;5.83;;;7.30;95.80;;;;;;5033892;28;20194;-84
2023/04/07 07:38:36;;;;;;;9.83;5.90;;;7.40;95.50;;;;;;5033858;28;20627;-83
2023/04/07 07:41:02;;;;;;;10.10;6.17;;;7.40;95.40;;;;;;5033927;28;20206;-83
2023/04/07 07:43:28;;;;;;;9.43;6.10;;;7.50;95.60;;;;;;5033828;28;20177;-84
2023/04/07 07:45:54;;;;;;;8.70;5.77;;;7.60;94.80;;;;;;5032533;28;20216;-83
2023/04/07 07:48:20;;;;;;;8.53;5.27;;;7.70;94.50;;;;;;5032389;28;20321;-83
2023/04/07 07:50:46;;;;;;;10.90;6.20;;;7.70;94.90;;;;;;5033428;28;20664;-83
2023/04/07 07:53:12;;;;;;;9.60;6.27;;;7.70;94.50;;;;;;5034005;28;20171;-83
2023/04/07 07:55:38;;;;;;;9.10;5.73;;;7.70;93.30;;;;;;5033697;28;20261;-83
2023/04/07 07:58:03;;;;;;;10.40;5.93;;;7.80;94.60;;;;;;5033755;28;20170;-82
2023/04/07 08:00:29;;;;;;;9.13;5.80;;;7.80;93.70;;;;;;5033623;28;20185;-83
2023/04/07 08:02:55;;;;;;;10.00;6.30;;;7.80;94.20;;;;;;5033512;28;20158;-84
2023/04/07 08:05:21;;;;;;;10.83;5.70;;;7.80;93.20;;;;;;5032318;28;20526;-83
2023/04/07 08:07:47;;;;;;;8.93;6.13;;;7.90;94.10;;;;;;5033559;28;20182;-84
2023/04/07 08:10:14;;;;;;;8.47;5.87;;;7.90;93.40;;;;;;5033385;28;20218;-84
2023/04/07 08:12:40;;;;;;;8.07;5.33;;;8.00;93.80;;;;;;5033514;28;20609;-83
2023/04/07 08:15:08;;;;;;;10.57;5.67;;;8.10;94.40;;;;;;5033557;28;20241;-84
2023/04/07 08:17:35;;;;;;;10.43;5.90;;;8.20;93.10;;;;;;5033813;28;20185;-83
2023/04/07 08:20:00;;;;;;;9.03;5.57;;;8.30;93.20;;;;;;5033467;28;20178;-84
2023/04/07 08:22:26;;;;;;;8.30;5.60;;;8.30;92.70;;;;;;5033407;28;20167;-84
2023/04/07 08:24:52;;;;;;;9.53;5.80;;;8.30;93.00;;;;;;5033024;28;20707;-84
2023/04/07 08:27:18;;;;;;;9.67;5.90;;;8.30;93.10;;;;;;5033520;28;20179;-83
2023/04/07 08:29:43;;;;;;;12.03;5.80;;;8.30;92.80;;;;;;5033387;28;20542;-83
2023/04/07 08:32:09;;;;;;;13.07;6.13;;;8.10;92.70;;;;;;5033348;28;20170;-84
2023/04/07 08:34:35;;;;;;;12.63;6.53;;;8.20;93.00;;;;;;5033548;28;20682;-84
2023/04/07 08:37:01;;;;;;;9.67;5.67;;;8.30;93.60;;;;;;5033631;28;20555;-84
2023/04/07 08:39:27;;;;;;;14.13;6.20;;;8.50;93.00;;;;;;5033187;28;20316;-84
2023/04/07 08:41:55;;;;;;;10.20;5.37;;;8.80;91.70;;;;;;5033264;28;20250;-83
2023/04/07 08:44:22;;;;;;;9.27;5.53;;;8.90;93.20;;;;;;5048644;28;20190;-84
2023/04/07 08:46:52;;;;;;;11.50;5.53;;;9.10;93.40;;;;;;5033294;28;20190;-83
2023/04/07 08:49:20;;;;;;;8.63;5.13;;;9.40;92.80;;;;;;5033073;28;20256;-83
2023/04/07 08:51:47;;;;;;;8.87;5.33;;;9.30;91.20;;;;;;5033163;28;20209;-84
2023/04/07 08:54:15;;;;;;;7.55;5.15;;;9.30;90.70;;;;;;5033272;28;20250;-82
2023/04/07 08:56:42;;;;;;;9.00;5.40;;;9.30;91.80;;;;;;5033286;28;20167;-84
2023/04/07 08:59:12;;;;;;;8.50;5.13;;;9.50;90.90;;;;;;5033259;28;20279;-83
2023/04/07 09:01:38;;;;;;;10.50;5.20;;;9.70;91.00;;;;;;5033432;28;20699;-82
2023/04/07 09:04:06;;;;;;;8.50;5.57;;;9.70;90.60;;;;;;5036670;28;20718;-83
2023/04/07 09:06:33;;;;;;;13.23;5.30;;;9.70;90.40;;;;;;5036785;28;20202;-83
2023/04/07 09:08:59;;;;;;;10.45;5.18;;;9.60;87.70;;;;;;5052062;28;20202;-83
2023/04/07 09:11:26;;;;;;;11.70;6.20;;;9.90;90.70;;;;;;5035434;28;20177;-85
2023/04/07 09:13:53;;;;;;;9.52;5.68;;;10.00;88.90;;;;;;5036932;28;20347;-85
2023/04/07 09:16:19;;;;;;;9.93;5.77;;;10.00;90.20;;;;;;5036712;28;20162;-84
2023/04/07 09:18:45;;;;;;;9.27;5.23;;;10.10;89.00;;;;;;5036506;28;20660;-83
2023/04/07 09:21:11;;;;;;;11.45;5.88;;;10.00;87.40;;;;;;5036518;28;20170;-84
2023/04/07 09:23:39;;;;;;;7.40;4.80;;;10.00;89.20;;;;;;5036033;28;20171;-84
2023/04/07 09:26:35;;;;;;;11.47;5.50;;;10.10;87.50;;;;;;5036393;28;20175;-85
2023/04/07 09:29:03;;;;;;;7.20;4.80;;;10.20;89.50;;;;;;5023463;28;20230;-84
2023/04/07 09:31:49;;;;;;;8.63;5.40;;;10.30;87.60;;;;;;5036117;28;20175;-84
2023/04/07 09:34:25;;;;;;;9.05;5.25;;;10.30;88.90;;;;;;5051570;28;20209;-84
2023/04/07 09:36:51;;;;;;;8.23;4.80;;;10.40;87.40;;;;;;5036223;28;20249;-83
2023/04/07 09:39:17;;;;;;;9.30;5.32;;;10.40;88.50;;;;;;5051334;28;20273;-84
2023/04/07 09:41:42;;;;;;;8.05;5.00;;;10.60;87.80;;;;;;5035990;28;20186;-84
2023/04/07 09:44:09;;;;;;;10.65;5.20;;;10.60;85.10;;;;;;5036363;28;20166;-84
2023/04/07 09:46:48;;;;;;;7.78;5.00;;;10.70;87.20;;;;;;5018322;28;20185;-84
2023/04/07 09:49:13;;;;;;;8.43;4.80;;;10.90;87.90;;;;;;5035883;28;20696;-83
2023/04/07 09:51:58;;;;;;;8.18;4.95;;;11.00;85.20;;;;;;5035716;28;20182;-83
2023/04/07 09:54:37;;;;;;;8.75;4.90;;;11.10;83.10;;;;;;5036130;28;20175;-84
2023/04/07 09:57:05;;;;;;;6.93;4.20;;;11.00;80.20;;;;;;5036222;28;20175;-83
2023/04/07 09:59:33;;;;;;;6.63;4.47;;;11.00;81.90;;;;;;5035732;28;20178;-83
2023/04/07 10:01:59;;;;;;;9.65;4.88;;;11.00;81.60;;;;;;5050974;28;20185;-84
2023/04/07 10:04:26;;;;;;;5.88;4.35;;;11.00;81.60;;;;;;5050893;28;20283;-83
2023/04/07 10:06:56;;;;;;;6.80;4.20;;;11.00;81.00;;;;;;5035565;28;20171;-85
2023/04/07 10:09:23;;;;;;;8.00;4.18;;;11.30;83.50;;;;;;5035440;28;20233;-84
2023/04/07 10:11:50;;;;;;;6.60;3.95;;;11.30;81.70;;;;;;5034265;28;20231;-84
2023/04/07 10:14:18;;;;;;;6.05;3.80;;;11.40;82.40;;;;;;5050698;28;20248;-83
2023/04/07 10:16:50;;;;;;;7.45;4.57;;;11.50;81.00;;;;;;5035474;28;20179;-84
2023/04/07 10:19:17;;;;;;;6.10;3.90;;;11.60;82.70;;;;;;5035392;28;20163;-84
2023/04/07 10:21:43;;;;;;;6.32;4.05;;;11.70;80.00;;;;;;5035331;28;20170;-83
2023/04/07 10:24:34;;;;;;;6.88;4.05;;;11.60;80.60;;;;;;5034892;28;20617;-84
2023/04/07 10:27:03;;;;;;;5.80;3.80;;;11.50;79.10;;;;;;5050584;28;20602;-83
2023/04/07 10:29:35;;;;;;;6.57;4.18;;;11.60;80.70;;;;;;5035069;28;20255;-83
2023/04/07 10:32:02;;;;;;;5.85;3.90;;;11.70;80.00;;;;;;5035032;28;20167;-83
2023/04/07 10:34:49;;;;;;;6.28;4.15;;;11.80;79.20;;;;;;5033899;28;20182;-82
2023/04/07 10:37:19;;;;;;;5.97;3.60;;;11.80;80.70;;;;;;5035046;28;20179;-83
2023/04/07 10:39:45;;;;;;;6.82;3.75;;;11.60;76.70;;;;;;5035079;28;20171;-83
2023/04/07 10:42:36;;;;;;;6.45;4.32;;;11.70;80.90;;;;;;5034902;28;20216;-84
2023/04/07 10:45:03;;;;;;;7.10;3.88;;;11.90;79.50;;;;;;5034962;28;20174;-83
2023/04/07 10:47:29;;;;;;;8.02;4.20;;;12.00;79.80;;;;;;5034922;28;20163;-83
2023/04/07 10:50:22;;;;;;;5.60;3.45;;;12.00;79.00;;;;;;5034661;28;20222;-83
2023/04/07 10:53:03;;;;;;;4.82;3.63;;;12.00;78.20;;;;;;5034847;28;20240;-82
2023/04/07 10:55:45;;;;;;;6.65;4.05;;;12.10;76.90;;;;;;5034729;28;20166;-84
2023/04/07 10:58:30;;;;;;;5.82;3.70;;;12.10;75.00;;;;;;5034556;28;20178;-83
2023/04/07 11:01:05;;;;;;;5.00;3.25;;;12.20;76.90;;;;;;5034546;28;20168;-83
2023/04/07 11:03:33;;;;;;;6.43;3.70;;;12.20;75.90;;;;;;5033112;28;20225;-84
2023/04/07 11:06:07;;;;;;;5.45;3.40;;;12.20;75.10;;;;;;5049972;28;20178;-84
2023/04/07 11:08:33;;;;;;;6.18;3.55;;;12.10;75.90;;;;;;5034397;28;20226;-82
2023/04/07 11:10:58;;;;;;;5.32;3.22;;;12.20;75.40;;;;;;5034414;28;20297;-82
2023/04/07 11:13:26;;;;;;;5.25;3.05;;;12.30;76.40;;;;;;5034613;28;20191;-83
2023/04/07 11:15:52;;;;;;;5.75;3.20;;;12.40;75.10;;;;;;5034362;28;20174;-83
2023/04/07 11:18:20;;;;;;;5.43;3.72;;;12.50;75.50;;;;;;5034463;28;20224;-82
2023/04/07 11:20:57;;;;;;;5.95;3.80;;;12.50;73.40;;;;;;5034283;28;20205;-83
2023/04/07 11:23:24;;;;;;;5.43;3.67;;;12.70;76.90;;;;;;5034102;28;20560;-82
2023/04/07 11:25:52;;;;;;;5.35;3.22;;;12.80;75.50;;;;;;5033723;28;20175;-82
2023/04/07 11:28:18;;;;;;;7.47;3.30;;;12.60;74.50;;;;;;5034087;28;20175;-82
2023/04/07 11:30:46;;;;;;;6.97;4.00;;;12.40;72.70;;;;;;5034107;28;20568;-83
2023/04/07 11:33:23;;;;;;;7.20;4.32;;;12.40;75.30;;;;;;5033951;28;20566;-84
2023/04/07 11:35:54;;;;;;;6.20;3.53;;;12.50;74.70;;;;;;5034080;28;20611;-81
2023/04/07 11:38:21;;;;;;;5.35;3.70;;;12.60;75.30;;;;;;5034234;28;20176;-82
2023/04/07 11:40:47;;;;;;;6.07;3.72;;;12.30;72.80;;;;;;5033886;28;20174;-83
2023/04/07 11:43:20;;;;;;;5.30;3.63;;;12.20;74.40;;;;;;5034111;28;20190;-83
2023/04/07 11:46:02;;;;;;;5.38;3.78;;;12.40;76.90;;;;;;5034274;28;20186;-83
2023/04/07 11:48:29;;;;;;;6.65;3.60;;;12.50;73.30;;;;;;5033999;28;20179;-83
2023/04/07 11:50:55;;;;;;;7.10;3.53;;;12.50;74.10;;;;;;5033935;28;20558;-83
2023/04/07 11:53:29;;;;;;;7.40;3.90;;;12.60;75.60;;;;;;5032501;28;20178;-83
2023/04/07 11:56:10;;;;;;;5.63;3.85;;;12.60;73.70;;;;;;5033963;28;20213;-82
2023/04/07 11:58:37;;;;;;;5.47;3.55;;;12.70;74.60;;;;;;5033636;28;20167;-82
2023/04/07 12:01:08;;;;;;;6.75;3.45;;;12.70;73.80;;;;;;5033699;28;20197;-84
2023/04/07 12:03:36;;;;;;;6.68;3.90;;;12.70;74.20;;;;;;5033408;28;20681;-82
2023/04/07 12:06:02;;;;;;;6.60;4.00;;;12.90;72.90;;;;;;5032501;28;20713;-83
2023/04/07 12:08:39;;;;;;;6.57;4.35;;;12.90;71.90;;;;;;5033571;28;20206;-82
2023/04/07 12:11:05;;;;;;;7.25;4.30;;;13.10;73.50;;;;;;5033434;28;20170;-82
2023/04/07 12:13:31;;;;;;;5.32;4.20;;;13.10;73.50;;;;;;5033613;28;20171;-83
2023/04/07 12:16:00;;;;;;;5.60;3.67;;;13.30;73.90;;;;;;5032401;28;20232;-83
2023/04/07 12:18:27;;;;;;;4.65;3.42;;;13.20;74.20;;;;;;5033701;28;20213;-82
2023/04/07 12:20:52;;;;;;;6.78;3.53;;;13.30;71.80;;;;;;5033380;28;20175;-82
2023/04/07 12:23:18;;;;;;;6.90;3.90;;;13.30;73.30;;;;;;5015475;28;20185;-81
2023/04/07 12:25:44;;;;;;;6.43;3.95;;;13.20;72.90;;;;;;5033380;28;20170;-84
2023/04/07 12:28:10;;;;;;;6.60;3.55;;;13.10;73.30;;;;;;5032493;28;20558;-82
2023/04/07 12:30:36;;;;;;;6.13;3.80;;;13.10;72.30;;;;;;5031900;28;20319;-82
2023/04/07 12:33:02;;;;;;;8.25;3.55;;;13.20;73.10;;;;;;5033373;28;20171;-83
2023/04/07 12:35:29;;;;;;;6.28;3.70;;;13.20;72.30;;;;;;5033722;28;20512;-82
2023/04/07 12:37:55;;;;;;;6.07;4.10;;;13.30;73.10;;;;;;5051173;28;20175;-83
2023/04/07 12:40:22;;;;;;;6.82;3.70;;;13.50;73.50;;;;;;5037481;28;20544;-83
2023/04/07 12:42:47;;;;;;;6.57;3.70;;;13.30;72.50;;;;;;5037143;28;20237;-83
2023/04/07 12:45:13;;;;;;;5.72;3.35;;;13.10;72.10;;;;;;5037233;28;20167;-82
2023/04/07 12:47:39;;;;;;;6.65;4.13;;;13.20;72.90;;;;;;5037204;28;20189;-82
2023/04/07 12:50:05;;;;;;;5.60;3.35;;;13.00;72.30;;;;;;5036979;28;20222;-82